Terminal Aerodrome Forecast
Issued by NWS New Orleans/Baton Rouge, LA

Home | Current Version | Previous Version | Text Only | Print | Product List | Glossary On
Versions: 1 2 3 4 5 6 7 8 9 10 11 12 13 14 15 16 17 18 19 20 21 22 23 24 25
000
FTUS44 KLIX 250520
TAFNEW
TAF
KNEW 250520Z 2506/2606 18007KT P6SM VCSH FEW023 SCT035 BKN090
     FM251200 14011KT P6SM SHRA BKN025
     FM251700 14013KT P6SM SHRA OVC050
     FM260000 14014KT P6SM BKN050=

USA.gov is the U.S. government's official web portal to all federal, state and local government web resources and services.